KZR928 LTAI-UATT
Flight info
| Callsign | KZR928 |
|---|---|
| Flight time | 3h 35m |
| Altitude | 35000 |
| Route | ADBEL UR55 MUT UA285 SIV UL615 ERZ UT309 KAR UT165 REBLO M11 MATAL T916 LEYLA N161 GASBI/K0839F350 N60 AKT N996 KODUM Z210 KURUL DCT GULDO |
| Aircraft | A21N/M-SDE3FGHIRWY/LB1 |
Departure
| Time | 2026-05-08 12:50 |
|---|---|
| Airport | Antalya International Airport (LTAI) |
Arrival
| Time | 2026-05-08 16:25 |
|---|---|
| Airport | Aktobe International Airport (UATT) |
| Time | Latitude | Longitude | Altitude | Speed | Heading |
|---|---|---|---|---|---|
| 2026-05-08 12:50 | 36.80273 | 30.89094 | 4857 ft | 270 kts | 82° |
| 2026-05-08 12:50 | 36.80509 | 30.91390 | 5545 ft | 272 kts | 81° |
| 2026-05-08 12:50 | 36.80742 | 30.93733 | 6220 ft | 274 kts | 81° |
| 2026-05-08 12:50 | 36.80974 | 30.96096 | 6879 ft | 277 kts | 81° |
| 2026-05-08 12:51 | 36.81204 | 30.98456 | 7509 ft | 280 kts | 81° |
| 2026-05-08 12:51 | 36.81667 | 31.03308 | 8725 ft | 286 kts | 81° |
| 2026-05-08 12:51 | 36.81904 | 31.05794 | 9314 ft | 290 kts | 81° |
| 2026-05-08 12:52 | 36.82140 | 31.08287 | 9882 ft | 293 kts | 81° |
| 2026-05-08 12:52 | 36.82625 | 31.13455 | 10690 ft | 311 kts | 81° |
| 2026-05-08 12:52 | 36.82881 | 31.16173 | 10967 ft | 325 kts | 81° |
| 2026-05-08 12:53 | 36.83148 | 31.19022 | 11232 ft | 339 kts | 81° |
| 2026-05-08 12:53 | 36.83422 | 31.21990 | 11630 ft | 346 kts | 81° |
| 2026-05-08 12:53 | 36.83696 | 31.24956 | 12157 ft | 349 kts | 81° |
| 2026-05-08 12:53 | 36.83976 | 31.27986 | 12693 ft | 352 kts | 81° |
| 2026-05-08 12:54 | 36.84251 | 31.31007 | 13213 ft | 355 kts | 81° |
| 2026-05-08 12:54 | 36.84532 | 31.34074 | 13725 ft | 358 kts | 81° |
| 2026-05-08 12:54 | 36.84815 | 31.37160 | 14211 ft | 361 kts | 81° |
| 2026-05-08 12:54 | 36.85100 | 31.40272 | 14680 ft | 364 kts | 81° |
| 2026-05-08 12:55 | 36.85384 | 31.43403 | 15215 ft | 365 kts | 81° |
| 2026-05-08 12:55 | 36.85672 | 31.46579 | 15704 ft | 368 kts | 81° |
| 2026-05-08 12:55 | 36.85960 | 31.49760 | 16165 ft | 371 kts | 81° |
| 2026-05-08 12:55 | 36.86249 | 31.52955 | 16623 ft | 374 kts | 81° |
| 2026-05-08 12:56 | 36.86539 | 31.56187 | 17041 ft | 377 kts | 81° |
| 2026-05-08 12:56 | 36.86830 | 31.59427 | 17479 ft | 379 kts | 81° |
| 2026-05-08 12:56 | 36.87122 | 31.62712 | 17904 ft | 382 kts | 81° |
| 2026-05-08 12:56 | 36.87415 | 31.66003 | 18307 ft | 385 kts | 81° |
| 2026-05-08 12:57 | 36.87709 | 31.69320 | 18684 ft | 388 kts | 81° |
| 2026-05-08 12:57 | 36.88002 | 31.72651 | 19042 ft | 391 kts | 81° |
| 2026-05-08 12:57 | 36.88300 | 31.76025 | 19441 ft | 393 kts | 81° |
| 2026-05-08 12:57 | 36.88601 | 31.79448 | 19844 ft | 396 kts | 81° |
| 2026-05-08 12:58 | 36.88900 | 31.82857 | 20260 ft | 398 kts | 81° |
| 2026-05-08 12:58 | 36.89196 | 31.86268 | 20689 ft | 399 kts | 81° |
| 2026-05-08 12:58 | 36.89497 | 31.89726 | 21054 ft | 402 kts | 80° |
| 2026-05-08 12:58 | 36.89799 | 31.93202 | 21400 ft | 405 kts | 81° |
| 2026-05-08 12:59 | 36.89996 | 31.96704 | 21748 ft | 409 kts | 84° |
| 2026-05-08 12:59 | 36.90011 | 32.00269 | 22085 ft | 413 kts | 88° |
| 2026-05-08 12:59 | 36.89932 | 32.03852 | 22394 ft | 416 kts | 88° |
| 2026-05-08 12:59 | 36.89837 | 32.07496 | 22737 ft | 418 kts | 89° |
| 2026-05-08 13:00 | 36.89741 | 32.11126 | 23059 ft | 420 kts | 88° |
| 2026-05-08 13:00 | 36.89646 | 32.14773 | 23418 ft | 421 kts | 88° |
| 2026-05-08 13:00 | 36.89551 | 32.18414 | 23746 ft | 423 kts | 88° |
| 2026-05-08 13:00 | 36.89456 | 32.22079 | 24026 ft | 426 kts | 88° |
| 2026-05-08 13:01 | 36.89361 | 32.25771 | 24315 ft | 429 kts | 88° |
| 2026-05-08 13:01 | 36.89265 | 32.29524 | 24617 ft | 431 kts | 88° |
| 2026-05-08 13:01 | 36.89167 | 32.33268 | 24907 ft | 433 kts | 87° |
| 2026-05-08 13:01 | 36.89068 | 32.37027 | 25202 ft | 435 kts | 87° |
| 2026-05-08 13:02 | 36.88967 | 32.40803 | 25443 ft | 438 kts | 87° |
| 2026-05-08 13:02 | 36.88863 | 32.44582 | 25698 ft | 440 kts | 87° |
| 2026-05-08 13:02 | 36.88760 | 32.48394 | 25936 ft | 443 kts | 87° |
| 2026-05-08 13:02 | 36.88655 | 32.52261 | 26196 ft | 445 kts | 86° |
| 2026-05-08 13:03 | 36.88548 | 32.56128 | 26461 ft | 447 kts | 87° |
| 2026-05-08 13:03 | 36.88437 | 32.60006 | 26710 ft | 449 kts | 86° |
| 2026-05-08 13:03 | 36.88330 | 32.63855 | 26947 ft | 451 kts | 86° |
| 2026-05-08 13:03 | 36.88220 | 32.67763 | 27158 ft | 453 kts | 87° |
| 2026-05-08 13:04 | 36.88108 | 32.71693 | 27336 ft | 456 kts | 87° |
| 2026-05-08 13:04 | 36.87992 | 32.75648 | 27559 ft | 458 kts | 87° |
| 2026-05-08 13:04 | 36.87872 | 32.79652 | 27806 ft | 459 kts | 87° |
| 2026-05-08 13:04 | 36.87754 | 32.83594 | 28049 ft | 460 kts | 86° |
| 2026-05-08 13:05 | 36.87635 | 32.87621 | 28247 ft | 463 kts | 86° |
| 2026-05-08 13:05 | 36.87511 | 32.91643 | 28443 ft | 465 kts | 86° |
| 2026-05-08 13:05 | 36.87387 | 32.95654 | 28681 ft | 466 kts | 86° |
| 2026-05-08 13:05 | 36.87263 | 32.99673 | 28882 ft | 468 kts | 86° |
| 2026-05-08 13:06 | 36.87136 | 33.03731 | 29052 ft | 471 kts | 86° |
| 2026-05-08 13:06 | 36.87005 | 33.07809 | 29250 ft | 472 kts | 86° |
| 2026-05-08 13:06 | 36.86874 | 33.11885 | 29439 ft | 474 kts | 86° |
| 2026-05-08 13:06 | 36.86738 | 33.16043 | 29651 ft | 476 kts | 86° |
| 2026-05-08 13:07 | 36.86602 | 33.20146 | 29850 ft | 477 kts | 86° |
| 2026-05-08 13:07 | 36.86701 | 33.24263 | 30022 ft | 470 kts | 75° |
| 2026-05-08 13:07 | 36.87488 | 33.28133 | 30189 ft | 457 kts | 60° |
| 2026-05-08 13:07 | 36.88897 | 33.31582 | 30376 ft | 444 kts | 47° |
| 2026-05-08 13:08 | 36.90813 | 33.34512 | 30595 ft | 431 kts | 36° |
| 2026-05-08 13:08 | 36.93019 | 33.37069 | 30792 ft | 429 kts | 33° |
| 2026-05-08 13:08 | 36.95234 | 33.39545 | 30940 ft | 431 kts | 33° |
| 2026-05-08 13:08 | 36.97480 | 33.42059 | 31131 ft | 433 kts | 33° |
| 2026-05-08 13:09 | 36.99702 | 33.44569 | 31326 ft | 434 kts | 33° |
| 2026-05-08 13:09 | 37.01915 | 33.47087 | 31552 ft | 435 kts | 33° |
| 2026-05-08 13:09 | 37.04159 | 33.49654 | 31806 ft | 434 kts | 33° |
| 2026-05-08 13:09 | 37.06370 | 33.52192 | 32088 ft | 433 kts | 33° |
| 2026-05-08 13:10 | 37.08580 | 33.54733 | 32306 ft | 433 kts | 33° |
| 2026-05-08 13:10 | 37.10802 | 33.57287 | 32539 ft | 433 kts | 33° |
| 2026-05-08 13:10 | 37.13026 | 33.59852 | 32818 ft | 432 kts | 32° |
| 2026-05-08 13:10 | 37.15214 | 33.62376 | 33099 ft | 431 kts | 32° |
| 2026-05-08 13:11 | 37.17430 | 33.64935 | 33405 ft | 430 kts | 32° |
| 2026-05-08 13:11 | 37.19599 | 33.67443 | 33634 ft | 430 kts | 33° |
| 2026-05-08 13:11 | 37.21814 | 33.70004 | 33802 ft | 431 kts | 32° |
| 2026-05-08 13:11 | 37.24015 | 33.72549 | 33985 ft | 431 kts | 33° |
| 2026-05-08 13:12 | 37.26192 | 33.75071 | 34204 ft | 431 kts | 33° |
| 2026-05-08 13:12 | 37.28419 | 33.77649 | 34368 ft | 432 kts | 33° |
| 2026-05-08 13:12 | 37.30600 | 33.80179 | 34553 ft | 432 kts | 33° |
| 2026-05-08 13:12 | 37.32813 | 33.82750 | 34740 ft | 433 kts | 33° |
| 2026-05-08 13:13 | 37.35030 | 33.85330 | 34931 ft | 433 kts | 33° |
| 2026-05-08 13:13 | 37.37231 | 33.87889 | 35060 ft | 434 kts | 33° |
| 2026-05-08 13:13 | 37.39420 | 33.90437 | 35228 ft | 434 kts | 33° |
| 2026-05-08 13:13 | 37.41640 | 33.93028 | 35253 ft | 436 kts | 33° |
| 2026-05-08 13:14 | 37.46068 | 33.98198 | 35251 ft | 434 kts | 33° |
| 2026-05-08 13:14 | 37.50476 | 34.03358 | 35255 ft | 434 kts | 33° |
| 2026-05-08 13:15 | 37.54905 | 34.08553 | 35258 ft | 435 kts | 33° |
| 2026-05-08 13:15 | 37.59300 | 34.13720 | 35258 ft | 435 kts | 33° |
| 2026-05-08 13:16 | 37.63730 | 34.18938 | 35246 ft | 433 kts | 33° |
| 2026-05-08 13:16 | 37.68133 | 34.24128 | 35252 ft | 435 kts | 33° |
| 2026-05-08 13:17 | 37.72530 | 34.29322 | 35244 ft | 435 kts | 33° |
| 2026-05-08 13:17 | 37.76938 | 34.34542 | 35237 ft | 434 kts | 33° |
| 2026-05-08 13:18 | 37.81319 | 34.39736 | 35247 ft | 434 kts | 33° |
| 2026-05-08 13:18 | 37.85712 | 34.44958 | 35256 ft | 433 kts | 33° |
| 2026-05-08 13:19 | 37.90100 | 34.50180 | 35257 ft | 434 kts | 33° |
| 2026-05-08 13:19 | 37.94505 | 34.55407 | 35259 ft | 435 kts | 33° |
| 2026-05-08 13:20 | 37.98906 | 34.60645 | 35261 ft | 435 kts | 33° |
| 2026-05-08 13:20 | 38.01083 | 34.63236 | 35372 ft | 434 kts | 33° |
| 2026-05-08 13:20 | 38.03284 | 34.65863 | 35307 ft | 434 kts | 34° |
| 2026-05-08 13:21 | 38.07661 | 34.71092 | 35135 ft | 434 kts | 34° |
| 2026-05-08 13:21 | 38.12085 | 34.76383 | 35238 ft | 437 kts | 34° |
| 2026-05-08 13:22 | 38.16478 | 34.81650 | 35256 ft | 435 kts | 34° |
| 2026-05-08 13:22 | 38.20882 | 34.86946 | 35262 ft | 436 kts | 34° |
| 2026-05-08 13:23 | 38.25269 | 34.92226 | 35259 ft | 436 kts | 34° |
| 2026-05-08 13:23 | 38.29671 | 34.97516 | 35263 ft | 437 kts | 34° |
| 2026-05-08 13:24 | 38.34078 | 35.02800 | 35263 ft | 436 kts | 34° |
| 2026-05-08 13:24 | 38.38533 | 35.07993 | 35263 ft | 433 kts | 32° |
| 2026-05-08 13:25 | 38.43137 | 35.12936 | 35250 ft | 433 kts | 31° |
| 2026-05-08 13:25 | 38.47745 | 35.17878 | 35246 ft | 434 kts | 32° |
| 2026-05-08 13:26 | 38.52330 | 35.22881 | 35247 ft | 436 kts | 34° |
| 2026-05-08 13:26 | 38.56700 | 35.28316 | 35239 ft | 438 kts | 36° |
| 2026-05-08 13:27 | 38.60984 | 35.33785 | 35238 ft | 438 kts | 37° |
| 2026-05-08 13:27 | 38.65288 | 35.39285 | 35242 ft | 439 kts | 37° |
| 2026-05-08 13:28 | 38.69599 | 35.44799 | 35240 ft | 439 kts | 37° |
| 2026-05-08 13:28 | 38.73906 | 35.50318 | 35232 ft | 439 kts | 37° |
| 2026-05-08 13:29 | 38.78179 | 35.55800 | 35231 ft | 438 kts | 37° |
| 2026-05-08 13:29 | 38.82483 | 35.61331 | 35239 ft | 438 kts | 37° |
| 2026-05-08 13:30 | 38.86782 | 35.66869 | 35239 ft | 438 kts | 38° |
| 2026-05-08 13:30 | 38.91065 | 35.72400 | 35246 ft | 439 kts | 38° |
| 2026-05-08 13:31 | 38.95362 | 35.77929 | 35247 ft | 438 kts | 37° |
| 2026-05-08 13:31 | 38.99746 | 35.83358 | 35246 ft | 438 kts | 37° |
| 2026-05-08 13:32 | 39.04133 | 35.88794 | 35246 ft | 438 kts | 37° |
| 2026-05-08 13:32 | 39.08492 | 35.94223 | 35242 ft | 438 kts | 37° |
| 2026-05-08 13:33 | 39.12872 | 35.99695 | 35246 ft | 437 kts | 37° |
| 2026-05-08 13:33 | 39.17177 | 36.05161 | 35241 ft | 439 kts | 39° |
| 2026-05-08 13:34 | 39.21401 | 36.10852 | 35234 ft | 440 kts | 40° |
| 2026-05-08 13:34 | 39.25611 | 36.16552 | 35243 ft | 439 kts | 40° |
| 2026-05-08 13:35 | 39.29821 | 36.22240 | 35243 ft | 439 kts | 40° |
| 2026-05-08 13:35 | 39.34018 | 36.27913 | 35241 ft | 439 kts | 40° |
| 2026-05-08 13:36 | 39.38238 | 36.33622 | 35239 ft | 439 kts | 40° |
| 2026-05-08 13:36 | 39.42437 | 36.39314 | 35243 ft | 439 kts | 40° |
| 2026-05-08 13:37 | 39.46647 | 36.45039 | 35245 ft | 440 kts | 40° |
| 2026-05-08 13:37 | 39.50868 | 36.50786 | 35245 ft | 440 kts | 40° |
| 2026-05-08 13:38 | 39.55063 | 36.56504 | 35245 ft | 439 kts | 40° |
| 2026-05-08 13:38 | 39.59254 | 36.62237 | 35245 ft | 439 kts | 40° |
| 2026-05-08 13:39 | 39.63452 | 36.67989 | 35243 ft | 440 kts | 41° |
| 2026-05-08 13:39 | 39.67619 | 36.73713 | 35238 ft | 439 kts | 41° |
| 2026-05-08 13:40 | 39.71817 | 36.79493 | 35237 ft | 439 kts | 41° |
| 2026-05-08 13:40 | 39.75631 | 36.85730 | 35230 ft | 445 kts | 52° |
| 2026-05-08 13:41 | 39.78390 | 36.92959 | 35238 ft | 453 kts | 65° |
| 2026-05-08 13:41 | 39.79926 | 37.00907 | 35240 ft | 460 kts | 77° |
| 2026-05-08 13:42 | 39.80617 | 37.09142 | 35244 ft | 461 kts | 80° |
| 2026-05-08 13:42 | 39.81250 | 37.17427 | 35243 ft | 461 kts | 79° |
| 2026-05-08 13:43 | 39.81907 | 37.25720 | 35254 ft | 461 kts | 79° |
| 2026-05-08 13:43 | 39.82564 | 37.33982 | 35254 ft | 461 kts | 79° |
| 2026-05-08 13:44 | 39.83218 | 37.42239 | 35260 ft | 461 kts | 79° |
| 2026-05-08 13:44 | 39.83860 | 37.50500 | 35262 ft | 460 kts | 79° |
| 2026-05-08 13:45 | 39.84491 | 37.58768 | 35262 ft | 461 kts | 79° |
| 2026-05-08 13:45 | 39.85117 | 37.67050 | 35262 ft | 461 kts | 80° |
| 2026-05-08 13:46 | 39.85735 | 37.75314 | 35264 ft | 462 kts | 80° |
| 2026-05-08 13:46 | 39.86350 | 37.83599 | 35265 ft | 461 kts | 80° |
| 2026-05-08 13:47 | 39.86956 | 37.91857 | 35266 ft | 461 kts | 81° |
| 2026-05-08 13:47 | 39.87561 | 38.00185 | 35265 ft | 461 kts | 80° |
| 2026-05-08 13:48 | 39.88166 | 38.08447 | 35263 ft | 461 kts | 80° |
| 2026-05-08 13:48 | 39.88768 | 38.16733 | 35271 ft | 461 kts | 80° |
| 2026-05-08 13:49 | 39.89361 | 38.25005 | 35269 ft | 461 kts | 81° |
| 2026-05-08 13:49 | 39.89951 | 38.33305 | 35270 ft | 461 kts | 81° |
| 2026-05-08 13:50 | 39.90532 | 38.41605 | 35269 ft | 462 kts | 81° |
| 2026-05-08 13:50 | 39.91105 | 38.49878 | 35268 ft | 461 kts | 81° |
| 2026-05-08 13:51 | 39.91674 | 38.58152 | 35270 ft | 462 kts | 81° |
| 2026-05-08 13:51 | 39.92242 | 38.66498 | 35275 ft | 461 kts | 82° |
| 2026-05-08 13:52 | 39.92800 | 38.74792 | 35272 ft | 461 kts | 82° |
| 2026-05-08 13:52 | 39.93350 | 38.83098 | 35276 ft | 462 kts | 81° |
| 2026-05-08 13:53 | 39.93770 | 38.91395 | 35274 ft | 464 kts | 85° |
| 2026-05-08 13:53 | 39.93909 | 38.99770 | 35274 ft | 464 kts | 85° |
| 2026-05-08 13:54 | 39.94026 | 39.08126 | 35257 ft | 464 kts | 85° |
| 2026-05-08 13:54 | 39.94157 | 39.16513 | 35257 ft | 464 kts | 85° |
| 2026-05-08 13:55 | 39.94292 | 39.24881 | 35254 ft | 464 kts | 85° |
| 2026-05-08 13:56 | 39.94480 | 39.37491 | 35237 ft | 465 kts | 85° |
| 2026-05-08 13:56 | 39.94598 | 39.45876 | 35238 ft | 466 kts | 85° |
| 2026-05-08 13:57 | 39.94708 | 39.54266 | 35234 ft | 465 kts | 85° |
| 2026-05-08 13:57 | 39.94814 | 39.62714 | 35230 ft | 466 kts | 85° |
| 2026-05-08 13:58 | 39.94916 | 39.71102 | 35236 ft | 465 kts | 85° |
| 2026-05-08 13:58 | 39.95013 | 39.79486 | 35234 ft | 465 kts | 86° |
| 2026-05-08 13:59 | 39.95101 | 39.87848 | 35237 ft | 465 kts | 86° |
| 2026-05-08 13:59 | 39.95185 | 39.96241 | 35227 ft | 466 kts | 86° |
| 2026-05-08 14:00 | 39.95260 | 40.04679 | 35225 ft | 467 kts | 86° |
| 2026-05-08 14:00 | 39.95327 | 40.13145 | 35218 ft | 467 kts | 86° |
| 2026-05-08 14:00 | 39.95358 | 40.17362 | 35348 ft | 467 kts | 86° |
| 2026-05-08 14:01 | 39.95388 | 40.21567 | 35291 ft | 466 kts | 86° |
| 2026-05-08 14:01 | 39.95443 | 40.29958 | 35235 ft | 467 kts | 86° |
| 2026-05-08 14:02 | 39.95494 | 40.38384 | 35224 ft | 466 kts | 86° |
| 2026-05-08 14:02 | 39.95537 | 40.46807 | 35212 ft | 466 kts | 86° |
| 2026-05-08 14:03 | 39.95575 | 40.55205 | 35221 ft | 466 kts | 86° |
| 2026-05-08 14:03 | 39.95604 | 40.63661 | 35218 ft | 467 kts | 86° |
| 2026-05-08 14:04 | 39.95630 | 40.72082 | 35216 ft | 468 kts | 86° |
| 2026-05-08 14:04 | 39.95652 | 40.80572 | 35216 ft | 469 kts | 86° |
| 2026-05-08 14:05 | 39.95668 | 40.88983 | 35218 ft | 468 kts | 87° |
| 2026-05-08 14:05 | 39.95676 | 40.97467 | 35217 ft | 468 kts | 86° |
| 2026-05-08 14:06 | 39.95678 | 41.05924 | 35220 ft | 468 kts | 86° |
| 2026-05-08 14:06 | 39.95907 | 41.14312 | 35209 ft | 466 kts | 81° |
| 2026-05-08 14:07 | 39.96964 | 41.22573 | 35218 ft | 462 kts | 73° |
| 2026-05-08 14:07 | 39.98861 | 41.30491 | 35206 ft | 459 kts | 65° |
| 2026-05-08 14:08 | 40.01339 | 41.38124 | 35204 ft | 458 kts | 63° |
| 2026-05-08 14:08 | 40.03867 | 41.45746 | 35209 ft | 459 kts | 63° |
| 2026-05-08 14:09 | 40.06367 | 41.53366 | 35203 ft | 459 kts | 63° |
| 2026-05-08 14:09 | 40.08860 | 41.61008 | 35206 ft | 459 kts | 63° |
| 2026-05-08 14:10 | 40.11337 | 41.68636 | 35207 ft | 458 kts | 64° |
| 2026-05-08 14:10 | 40.13800 | 41.76273 | 35196 ft | 458 kts | 64° |
| 2026-05-08 14:11 | 40.16262 | 41.83969 | 35200 ft | 457 kts | 64° |
| 2026-05-08 14:11 | 40.18703 | 41.91628 | 35191 ft | 458 kts | 64° |
| 2026-05-08 14:12 | 40.21131 | 41.99263 | 35199 ft | 459 kts | 64° |
| 2026-05-08 14:12 | 40.23572 | 42.06956 | 35197 ft | 458 kts | 65° |
| 2026-05-08 14:13 | 40.25997 | 42.14628 | 35201 ft | 459 kts | 65° |
| 2026-05-08 14:13 | 40.28429 | 42.22339 | 35204 ft | 459 kts | 65° |
| 2026-05-08 14:14 | 40.30863 | 42.30080 | 35218 ft | 460 kts | 65° |
| 2026-05-08 14:14 | 40.33288 | 42.37814 | 35214 ft | 461 kts | 65° |
| 2026-05-08 14:15 | 40.35696 | 42.45526 | 35221 ft | 461 kts | 65° |
| 2026-05-08 14:15 | 40.38121 | 42.53306 | 35209 ft | 461 kts | 65° |
| 2026-05-08 14:16 | 40.40528 | 42.61080 | 35230 ft | 462 kts | 65° |
| 2026-05-08 14:16 | 40.42922 | 42.68841 | 35225 ft | 462 kts | 66° |
| 2026-05-08 14:17 | 40.45312 | 42.76619 | 35236 ft | 463 kts | 66° |
| 2026-05-08 14:17 | 40.47726 | 42.84459 | 35232 ft | 462 kts | 66° |
| 2026-05-08 14:18 | 40.50127 | 42.92252 | 35258 ft | 463 kts | 66° |
| 2026-05-08 14:18 | 40.52522 | 43.00069 | 35244 ft | 463 kts | 66° |
| 2026-05-08 14:19 | 40.55013 | 43.07869 | 35255 ft | 462 kts | 63° |
| 2026-05-08 14:19 | 40.58049 | 43.15240 | 35249 ft | 461 kts | 57° |
| 2026-05-08 14:20 | 40.61510 | 43.22326 | 35262 ft | 461 kts | 55° |
| 2026-05-08 14:20 | 40.64993 | 43.29388 | 35249 ft | 461 kts | 56° |
| 2026-05-08 14:21 | 40.68452 | 43.36456 | 35261 ft | 461 kts | 56° |
| 2026-05-08 14:21 | 40.71916 | 43.43560 | 35252 ft | 461 kts | 56° |
| 2026-05-08 14:22 | 40.75367 | 43.50655 | 35253 ft | 461 kts | 56° |
| 2026-05-08 14:22 | 40.78811 | 43.57762 | 35259 ft | 462 kts | 56° |
| 2026-05-08 14:23 | 40.81661 | 43.65309 | 35251 ft | 464 kts | 69° |
| 2026-05-08 14:23 | 40.83284 | 43.73507 | 35245 ft | 465 kts | 81° |
| 2026-05-08 14:24 | 40.83615 | 43.82003 | 35252 ft | 465 kts | 91° |
| 2026-05-08 14:24 | 40.83340 | 43.90485 | 35241 ft | 465 kts | 93° |
| 2026-05-08 14:25 | 40.83022 | 43.98986 | 35245 ft | 465 kts | 93° |
| 2026-05-08 14:25 | 40.82715 | 44.07504 | 35238 ft | 465 kts | 92° |
| 2026-05-08 14:26 | 40.82412 | 44.16032 | 35213 ft | 466 kts | 92° |
| 2026-05-08 14:26 | 40.82104 | 44.24560 | 35215 ft | 467 kts | 93° |
| 2026-05-08 14:27 | 40.81793 | 44.33067 | 35207 ft | 467 kts | 93° |
| 2026-05-08 14:27 | 40.81474 | 44.41587 | 35205 ft | 467 kts | 93° |
| 2026-05-08 14:28 | 40.81149 | 44.50100 | 35197 ft | 467 kts | 93° |
| 2026-05-08 14:28 | 40.80817 | 44.58679 | 35196 ft | 468 kts | 93° |
| 2026-05-08 14:29 | 40.80478 | 44.67255 | 35195 ft | 469 kts | 94° |
| 2026-05-08 14:29 | 40.80134 | 44.75761 | 35193 ft | 468 kts | 94° |
| 2026-05-08 14:30 | 40.79783 | 44.84329 | 35191 ft | 468 kts | 94° |
| 2026-05-08 14:30 | 40.79425 | 44.92877 | 35198 ft | 469 kts | 94° |
| 2026-05-08 14:31 | 40.79061 | 45.01462 | 35192 ft | 469 kts | 94° |
| 2026-05-08 14:31 | 40.78690 | 45.10012 | 35196 ft | 470 kts | 94° |
| 2026-05-08 14:32 | 40.78122 | 45.22848 | 35186 ft | 470 kts | 94° |
| 2026-05-08 14:32 | 40.77734 | 45.31451 | 35183 ft | 471 kts | 94° |
| 2026-05-08 14:33 | 40.77336 | 45.40063 | 35175 ft | 471 kts | 94° |
| 2026-05-08 14:33 | 40.77099 | 45.48642 | 35186 ft | 473 kts | 90° |
| 2026-05-08 14:34 | 40.77564 | 45.57241 | 35176 ft | 474 kts | 83° |
| 2026-05-08 14:34 | 40.78460 | 45.65863 | 35164 ft | 474 kts | 83° |
| 2026-05-08 14:35 | 40.79366 | 45.74461 | 35172 ft | 475 kts | 83° |
| 2026-05-08 14:35 | 40.80254 | 45.83049 | 35166 ft | 475 kts | 83° |
| 2026-05-08 14:36 | 40.81127 | 45.91630 | 35163 ft | 476 kts | 84° |
| 2026-05-08 14:36 | 40.82000 | 46.00299 | 35150 ft | 476 kts | 84° |
| 2026-05-08 14:37 | 40.82858 | 46.08886 | 35136 ft | 476 kts | 83° |
| 2026-05-08 14:37 | 40.83716 | 46.17521 | 35128 ft | 477 kts | 84° |
| 2026-05-08 14:38 | 40.84568 | 46.26178 | 35126 ft | 477 kts | 84° |
| 2026-05-08 14:38 | 40.85416 | 46.34847 | 35121 ft | 477 kts | 84° |
| 2026-05-08 14:39 | 40.86257 | 46.43522 | 35114 ft | 477 kts | 84° |
| 2026-05-08 14:39 | 40.87087 | 46.52161 | 35113 ft | 478 kts | 84° |
| 2026-05-08 14:40 | 40.87915 | 46.60848 | 35110 ft | 478 kts | 84° |
| 2026-05-08 14:40 | 40.88740 | 46.69570 | 35104 ft | 479 kts | 84° |
| 2026-05-08 14:41 | 40.89553 | 46.78240 | 35102 ft | 479 kts | 84° |
| 2026-05-08 14:41 | 40.90768 | 46.86858 | 35097 ft | 480 kts | 78° |
| 2026-05-08 14:42 | 40.92368 | 46.95459 | 35094 ft | 481 kts | 77° |
| 2026-05-08 14:42 | 40.93967 | 47.03996 | 35096 ft | 481 kts | 77° |
| 2026-05-08 14:43 | 40.95555 | 47.12573 | 35110 ft | 481 kts | 77° |
| 2026-05-08 14:43 | 40.97127 | 47.21126 | 35123 ft | 481 kts | 77° |
| 2026-05-08 14:44 | 40.98695 | 47.29695 | 35142 ft | 482 kts | 77° |
| 2026-05-08 14:44 | 41.00254 | 47.38275 | 35149 ft | 482 kts | 77° |
| 2026-05-08 14:45 | 41.01818 | 47.46914 | 35159 ft | 483 kts | 78° |
| 2026-05-08 14:45 | 41.03370 | 47.55521 | 35171 ft | 484 kts | 78° |
| 2026-05-08 14:46 | 41.04919 | 47.64166 | 35183 ft | 484 kts | 78° |
| 2026-05-08 14:46 | 41.06466 | 47.72825 | 35198 ft | 484 kts | 78° |
| 2026-05-08 14:47 | 41.07999 | 47.81466 | 35206 ft | 483 kts | 78° |
| 2026-05-08 14:47 | 41.09659 | 47.90082 | 35194 ft | 485 kts | 74° |
| 2026-05-08 14:48 | 41.12091 | 47.98374 | 35194 ft | 486 kts | 65° |
| 2026-05-08 14:48 | 41.15405 | 48.06186 | 35196 ft | 488 kts | 57° |
| 2026-05-08 14:49 | 41.19336 | 48.13438 | 35200 ft | 488 kts | 53° |
| 2026-05-08 14:49 | 41.23378 | 48.20683 | 35196 ft | 489 kts | 53° |
| 2026-05-08 14:50 | 41.27388 | 48.27947 | 35186 ft | 489 kts | 53° |
| 2026-05-08 14:50 | 41.31376 | 48.35216 | 35179 ft | 488 kts | 53° |
| 2026-05-08 14:51 | 41.35356 | 48.42500 | 35180 ft | 488 kts | 54° |
| 2026-05-08 14:51 | 41.39349 | 48.49828 | 35174 ft | 488 kts | 54° |
| 2026-05-08 14:52 | 41.45353 | 48.60747 | 35155 ft | 487 kts | 53° |
| 2026-05-08 14:53 | 41.49403 | 48.67962 | 35145 ft | 488 kts | 53° |
| 2026-05-08 14:53 | 41.53408 | 48.75256 | 35134 ft | 488 kts | 56° |
| 2026-05-08 14:54 | 41.57198 | 48.82722 | 35125 ft | 488 kts | 57° |
| 2026-05-08 14:54 | 41.60963 | 48.90232 | 35120 ft | 489 kts | 57° |
| 2026-05-08 14:55 | 41.64755 | 48.97794 | 35118 ft | 489 kts | 57° |
| 2026-05-08 14:55 | 41.68538 | 49.05348 | 35116 ft | 489 kts | 57° |
| 2026-05-08 14:56 | 41.72303 | 49.12883 | 35115 ft | 489 kts | 57° |
| 2026-05-08 14:56 | 41.76059 | 49.20421 | 35115 ft | 489 kts | 57° |
| 2026-05-08 14:57 | 41.79817 | 49.27983 | 35114 ft | 489 kts | 57° |
| 2026-05-08 14:57 | 41.83731 | 49.35423 | 35116 ft | 490 kts | 54° |
| 2026-05-08 14:58 | 41.87760 | 49.42768 | 35112 ft | 489 kts | 53° |
| 2026-05-08 14:58 | 41.91779 | 49.50115 | 35112 ft | 491 kts | 54° |
| 2026-05-08 14:59 | 41.95806 | 49.57517 | 35116 ft | 491 kts | 53° |
| 2026-05-08 14:59 | 42.01834 | 49.68635 | 35110 ft | 491 kts | 54° |
| 2026-05-08 15:00 | 42.05838 | 49.76049 | 35110 ft | 491 kts | 54° |
| 2026-05-08 15:00 | 42.09848 | 49.83492 | 35112 ft | 491 kts | 54° |
| 2026-05-08 15:01 | 42.13834 | 49.90906 | 35109 ft | 490 kts | 54° |
| 2026-05-08 15:01 | 42.17825 | 49.98350 | 35108 ft | 490 kts | 54° |
| 2026-05-08 15:02 | 42.21792 | 50.05769 | 35111 ft | 491 kts | 54° |
| 2026-05-08 15:02 | 42.25782 | 50.13246 | 35116 ft | 493 kts | 54° |
| 2026-05-08 15:03 | 42.29769 | 50.20739 | 35121 ft | 494 kts | 54° |
| 2026-05-08 15:03 | 42.33750 | 50.28240 | 35122 ft | 493 kts | 54° |
| 2026-05-08 15:04 | 42.37717 | 50.35737 | 35122 ft | 493 kts | 54° |
| 2026-05-08 15:04 | 42.42237 | 50.42672 | 35120 ft | 494 kts | 40° |
| 2026-05-08 15:05 | 42.47835 | 50.47996 | 35123 ft | 490 kts | 26° |
| 2026-05-08 15:05 | 42.54118 | 50.51403 | 35124 ft | 486 kts | 14° |
| 2026-05-08 15:06 | 42.60563 | 50.53956 | 35118 ft | 485 kts | 13° |
| 2026-05-08 15:06 | 42.67028 | 50.56509 | 35115 ft | 483 kts | 13° |
| 2026-05-08 15:07 | 42.73466 | 50.59106 | 35113 ft | 482 kts | 13° |
| 2026-05-08 15:07 | 42.79860 | 50.61711 | 35108 ft | 482 kts | 13° |
| 2026-05-08 15:08 | 42.85215 | 50.63901 | 35103 ft | 481 kts | 13° |
| 2026-05-08 15:08 | 42.92659 | 50.66953 | 35097 ft | 480 kts | 14° |
| 2026-05-08 15:09 | 42.99068 | 50.69589 | 35098 ft | 480 kts | 14° |
| 2026-05-08 15:09 | 43.05425 | 50.72206 | 35104 ft | 480 kts | 14° |
| 2026-05-08 15:10 | 43.11834 | 50.74854 | 35109 ft | 479 kts | 14° |
| 2026-05-08 15:10 | 43.18201 | 50.77490 | 35113 ft | 478 kts | 14° |
| 2026-05-08 15:11 | 43.24553 | 50.80123 | 35113 ft | 477 kts | 14° |
| 2026-05-08 15:11 | 43.30850 | 50.82741 | 35107 ft | 475 kts | 14° |
| 2026-05-08 15:12 | 43.37196 | 50.85384 | 35102 ft | 475 kts | 14° |
| 2026-05-08 15:12 | 43.43481 | 50.88006 | 35103 ft | 475 kts | 14° |
| 2026-05-08 15:13 | 43.49781 | 50.90640 | 35105 ft | 474 kts | 14° |
| 2026-05-08 15:13 | 43.56108 | 50.93293 | 35092 ft | 473 kts | 15° |
| 2026-05-08 15:14 | 43.62355 | 50.95919 | 35095 ft | 472 kts | 15° |
| 2026-05-08 15:14 | 43.68638 | 50.98566 | 35081 ft | 473 kts | 15° |
| 2026-05-08 15:15 | 43.74912 | 51.01215 | 35081 ft | 471 kts | 15° |
| 2026-05-08 15:15 | 43.81175 | 51.03870 | 35078 ft | 471 kts | 15° |
| 2026-05-08 15:16 | 43.87307 | 51.07085 | 35077 ft | 472 kts | 22° |
| 2026-05-08 15:16 | 43.93126 | 51.11293 | 35064 ft | 474 kts | 29° |
| 2026-05-08 15:17 | 43.98730 | 51.15984 | 35069 ft | 474 kts | 30° |
| 2026-05-08 15:17 | 44.04346 | 51.20734 | 35070 ft | 474 kts | 30° |
| 2026-05-08 15:18 | 44.09957 | 51.25471 | 35066 ft | 472 kts | 30° |
| 2026-05-08 15:18 | 44.15570 | 51.30212 | 35058 ft | 472 kts | 30° |
| 2026-05-08 15:19 | 44.21186 | 51.34961 | 35054 ft | 472 kts | 30° |
| 2026-05-08 15:19 | 44.26747 | 51.39673 | 35060 ft | 471 kts | 29° |
| 2026-05-08 15:20 | 44.32335 | 51.44418 | 35053 ft | 471 kts | 29° |
| 2026-05-08 15:20 | 44.37935 | 51.49182 | 35026 ft | 469 kts | 29° |
| 2026-05-08 15:21 | 44.43484 | 51.53914 | 35028 ft | 469 kts | 29° |
| 2026-05-08 15:21 | 44.49043 | 51.58664 | 35014 ft | 469 kts | 29° |
| 2026-05-08 15:22 | 44.54591 | 51.63416 | 35020 ft | 470 kts | 29° |
| 2026-05-08 15:22 | 44.60154 | 51.68193 | 35017 ft | 469 kts | 30° |
| 2026-05-08 15:23 | 44.65699 | 51.72966 | 35007 ft | 469 kts | 30° |
| 2026-05-08 15:23 | 44.71248 | 51.77755 | 35008 ft | 468 kts | 30° |
| 2026-05-08 15:24 | 44.76794 | 51.82549 | 35016 ft | 467 kts | 30° |
| 2026-05-08 15:24 | 44.82301 | 51.87320 | 35010 ft | 466 kts | 30° |
| 2026-05-08 15:25 | 44.87815 | 51.92107 | 35006 ft | 468 kts | 30° |
| 2026-05-08 15:25 | 44.93354 | 51.96927 | 34995 ft | 466 kts | 30° |
| 2026-05-08 15:26 | 44.98842 | 52.01717 | 34987 ft | 467 kts | 31° |
| 2026-05-08 15:26 | 45.04357 | 52.06543 | 35004 ft | 467 kts | 30° |
| 2026-05-08 15:27 | 45.09840 | 52.11350 | 34999 ft | 465 kts | 30° |
| 2026-05-08 15:27 | 45.15331 | 52.16174 | 34986 ft | 466 kts | 30° |
| 2026-05-08 15:28 | 45.20835 | 52.21021 | 34989 ft | 466 kts | 30° |
| 2026-05-08 15:28 | 45.26307 | 52.25848 | 34990 ft | 466 kts | 30° |
| 2026-05-08 15:29 | 45.31826 | 52.30730 | 34983 ft | 466 kts | 30° |
| 2026-05-08 15:29 | 45.37304 | 52.35586 | 34975 ft | 466 kts | 30° |
| 2026-05-08 15:30 | 45.42781 | 52.40455 | 34986 ft | 466 kts | 30° |
| 2026-05-08 15:30 | 45.48262 | 52.45338 | 34986 ft | 465 kts | 30° |
| 2026-05-08 15:31 | 45.53751 | 52.50237 | 34975 ft | 465 kts | 30° |
| 2026-05-08 15:31 | 45.59227 | 52.55139 | 34962 ft | 465 kts | 30° |
| 2026-05-08 15:32 | 45.64684 | 52.60032 | 34957 ft | 465 kts | 30° |
| 2026-05-08 15:32 | 45.70136 | 52.64932 | 34942 ft | 465 kts | 30° |
| 2026-05-08 15:33 | 45.75616 | 52.69870 | 34957 ft | 465 kts | 31° |
| 2026-05-08 15:33 | 45.81075 | 52.74803 | 34949 ft | 465 kts | 31° |
| 2026-05-08 15:34 | 45.86512 | 52.79727 | 34944 ft | 465 kts | 31° |
| 2026-05-08 15:34 | 45.92002 | 52.84709 | 34938 ft | 466 kts | 31° |
| 2026-05-08 15:35 | 45.97452 | 52.89668 | 34937 ft | 465 kts | 31° |
| 2026-05-08 15:35 | 46.02895 | 52.94632 | 34928 ft | 465 kts | 31° |
| 2026-05-08 15:36 | 46.07456 | 52.98799 | 34918 ft | 465 kts | 31° |
| 2026-05-08 15:36 | 46.13800 | 53.04610 | 34921 ft | 465 kts | 31° |
| 2026-05-08 15:37 | 46.19230 | 53.09598 | 34923 ft | 465 kts | 31° |
| 2026-05-08 15:37 | 46.24692 | 53.14628 | 34916 ft | 465 kts | 30° |
| 2026-05-08 15:38 | 46.30122 | 53.19637 | 34911 ft | 466 kts | 31° |
| 2026-05-08 15:38 | 46.35568 | 53.24676 | 34909 ft | 466 kts | 30° |
| 2026-05-08 15:39 | 46.41007 | 53.29720 | 34907 ft | 466 kts | 30° |
| 2026-05-08 15:39 | 46.46492 | 53.34817 | 34904 ft | 466 kts | 30° |
| 2026-05-08 15:40 | 46.51916 | 53.39871 | 34904 ft | 466 kts | 30° |
| 2026-05-08 15:40 | 46.57377 | 53.44970 | 34900 ft | 467 kts | 30° |
| 2026-05-08 15:41 | 46.62864 | 53.50107 | 34895 ft | 467 kts | 30° |
| 2026-05-08 15:41 | 46.68309 | 53.55219 | 34888 ft | 467 kts | 30° |
| 2026-05-08 15:42 | 46.73774 | 53.60360 | 34879 ft | 468 kts | 30° |
| 2026-05-08 15:42 | 46.79251 | 53.65525 | 34882 ft | 468 kts | 31° |
| 2026-05-08 15:43 | 46.84687 | 53.70664 | 34878 ft | 468 kts | 31° |
| 2026-05-08 15:43 | 46.90134 | 53.75829 | 34876 ft | 469 kts | 31° |
| 2026-05-08 15:44 | 46.95612 | 53.81032 | 34873 ft | 469 kts | 31° |
| 2026-05-08 15:44 | 47.01053 | 53.86212 | 34868 ft | 468 kts | 31° |
| 2026-05-08 15:45 | 47.06485 | 53.91398 | 34866 ft | 468 kts | 31° |
| 2026-05-08 15:45 | 47.11922 | 53.96605 | 34870 ft | 470 kts | 31° |
| 2026-05-08 15:46 | 47.17416 | 54.01878 | 34871 ft | 470 kts | 31° |
| 2026-05-08 15:46 | 47.22836 | 54.07092 | 34871 ft | 469 kts | 31° |
| 2026-05-08 15:47 | 47.28294 | 54.12355 | 34863 ft | 469 kts | 31° |
| 2026-05-08 15:47 | 47.33747 | 54.17627 | 34861 ft | 469 kts | 31° |
| 2026-05-08 15:48 | 47.41920 | 54.25553 | 34868 ft | 469 kts | 31° |
| 2026-05-08 15:49 | 47.47320 | 54.30806 | 34857 ft | 469 kts | 31° |
| 2026-05-08 15:49 | 47.52780 | 54.36131 | 34857 ft | 468 kts | 31° |
| 2026-05-08 15:50 | 47.58205 | 54.41436 | 34852 ft | 468 kts | 31° |
| 2026-05-08 15:50 | 47.63636 | 54.46762 | 34845 ft | 468 kts | 31° |
| 2026-05-08 15:51 | 47.69066 | 54.52099 | 34844 ft | 468 kts | 31° |
| 2026-05-08 15:51 | 47.74459 | 54.57413 | 34836 ft | 468 kts | 31° |
| 2026-05-08 15:52 | 47.79853 | 54.62742 | 34832 ft | 468 kts | 31° |
| 2026-05-08 15:52 | 47.85267 | 54.68105 | 34826 ft | 468 kts | 31° |
| 2026-05-08 15:53 | 47.90662 | 54.73468 | 34829 ft | 468 kts | 31° |
| 2026-05-08 15:53 | 47.96077 | 54.78831 | 34828 ft | 468 kts | 31° |
| 2026-05-08 15:54 | 48.01508 | 54.84162 | 34823 ft | 467 kts | 31° |
| 2026-05-08 15:54 | 48.06912 | 54.89485 | 34822 ft | 467 kts | 31° |
| 2026-05-08 15:55 | 48.12344 | 54.94855 | 34818 ft | 467 kts | 31° |
| 2026-05-08 15:55 | 48.20444 | 55.02896 | 34821 ft | 466 kts | 31° |
| 2026-05-08 15:56 | 48.25826 | 55.08257 | 34817 ft | 466 kts | 31° |
| 2026-05-08 15:56 | 48.31191 | 55.13614 | 34827 ft | 465 kts | 31° |
| 2026-05-08 15:57 | 48.36550 | 55.18978 | 34824 ft | 464 kts | 31° |
| 2026-05-08 15:57 | 48.41913 | 55.24358 | 34823 ft | 464 kts | 31° |
| 2026-05-08 15:58 | 48.47251 | 55.29731 | 34824 ft | 464 kts | 31° |
| 2026-05-08 15:58 | 48.52632 | 55.35162 | 34820 ft | 464 kts | 31° |
| 2026-05-08 15:59 | 48.57962 | 55.40556 | 34817 ft | 464 kts | 31° |
| 2026-05-08 15:59 | 48.63329 | 55.45989 | 34807 ft | 463 kts | 31° |
| 2026-05-08 16:00 | 48.68657 | 55.51398 | 34809 ft | 463 kts | 31° |
| 2026-05-08 16:00 | 48.73974 | 55.56814 | 34678 ft | 463 kts | 31° |
| 2026-05-08 16:01 | 48.76643 | 55.59542 | 34359 ft | 462 kts | 31° |
| 2026-05-08 16:01 | 48.79271 | 55.62231 | 33830 ft | 462 kts | 31° |
| 2026-05-08 16:01 | 48.81938 | 55.64959 | 33149 ft | 465 kts | 31° |
| 2026-05-08 16:01 | 48.84685 | 55.67570 | 32405 ft | 468 kts | 28° |
| 2026-05-08 16:02 | 48.87524 | 55.69925 | 31684 ft | 469 kts | 25° |
| 2026-05-08 16:02 | 48.90443 | 55.72118 | 31014 ft | 466 kts | 24° |
| 2026-05-08 16:02 | 48.93317 | 55.74225 | 30366 ft | 460 kts | 24° |
| 2026-05-08 16:02 | 48.96150 | 55.76294 | 29790 ft | 449 kts | 24° |
| 2026-05-08 16:03 | 48.98949 | 55.78346 | 29361 ft | 436 kts | 24° |
| 2026-05-08 16:03 | 49.01611 | 55.80302 | 28971 ft | 423 kts | 24° |
| 2026-05-08 16:03 | 49.04237 | 55.82237 | 28603 ft | 420 kts | 24° |
| 2026-05-08 16:03 | 49.06838 | 55.84156 | 28231 ft | 417 kts | 24° |
| 2026-05-08 16:04 | 49.09445 | 55.86081 | 27856 ft | 414 kts | 24° |
| 2026-05-08 16:04 | 49.12039 | 55.88000 | 27489 ft | 411 kts | 24° |
| 2026-05-08 16:04 | 49.14599 | 55.89897 | 27096 ft | 409 kts | 24° |
| 2026-05-08 16:04 | 49.17115 | 55.91765 | 26692 ft | 406 kts | 24° |
| 2026-05-08 16:05 | 49.19647 | 55.93644 | 26271 ft | 403 kts | 24° |
| 2026-05-08 16:05 | 49.22135 | 55.95494 | 25866 ft | 399 kts | 25° |
| 2026-05-08 16:05 | 49.24618 | 55.97342 | 25464 ft | 395 kts | 25° |
| 2026-05-08 16:05 | 49.27065 | 55.99166 | 25052 ft | 392 kts | 25° |
| 2026-05-08 16:06 | 49.29503 | 56.00986 | 24613 ft | 389 kts | 25° |
| 2026-05-08 16:06 | 49.31929 | 56.02801 | 24166 ft | 386 kts | 25° |
| 2026-05-08 16:06 | 49.34295 | 56.04569 | 23748 ft | 382 kts | 25° |
| 2026-05-08 16:06 | 49.36666 | 56.06347 | 23320 ft | 379 kts | 25° |
| 2026-05-08 16:07 | 49.39017 | 56.08110 | 22856 ft | 376 kts | 25° |
| 2026-05-08 16:07 | 49.41343 | 56.09855 | 22405 ft | 373 kts | 25° |
| 2026-05-08 16:07 | 49.43687 | 56.11615 | 21934 ft | 370 kts | 25° |
| 2026-05-08 16:07 | 49.45983 | 56.13341 | 21465 ft | 368 kts | 25° |
| 2026-05-08 16:08 | 49.48265 | 56.15057 | 21028 ft | 365 kts | 25° |
| 2026-05-08 16:08 | 49.50523 | 56.16758 | 20604 ft | 362 kts | 25° |
| 2026-05-08 16:08 | 49.52758 | 56.18444 | 20178 ft | 359 kts | 25° |
| 2026-05-08 16:08 | 49.54995 | 56.20135 | 19719 ft | 357 kts | 25° |
| 2026-05-08 16:09 | 49.57212 | 56.21810 | 19281 ft | 354 kts | 26° |
| 2026-05-08 16:09 | 49.58664 | 56.22908 | 18995 ft | 353 kts | 26° |
| 2026-05-08 16:09 | 49.61585 | 56.25123 | 18399 ft | 351 kts | 26° |
| 2026-05-08 16:09 | 49.63760 | 56.26774 | 17931 ft | 350 kts | 26° |
| 2026-05-08 16:10 | 49.65953 | 56.28439 | 17467 ft | 348 kts | 26° |
| 2026-05-08 16:10 | 49.68100 | 56.30068 | 17030 ft | 346 kts | 26° |
| 2026-05-08 16:10 | 49.70240 | 56.31694 | 16602 ft | 344 kts | 26° |
| 2026-05-08 16:10 | 49.72380 | 56.33324 | 16163 ft | 342 kts | 26° |
| 2026-05-08 16:11 | 49.74501 | 56.34942 | 15713 ft | 341 kts | 26° |
| 2026-05-08 16:11 | 49.76618 | 56.36557 | 15276 ft | 339 kts | 26° |
| 2026-05-08 16:11 | 49.78723 | 56.38168 | 14837 ft | 338 kts | 26° |
| 2026-05-08 16:11 | 49.80816 | 56.39769 | 14402 ft | 336 kts | 26° |
| 2026-05-08 16:12 | 49.82884 | 56.41352 | 13972 ft | 334 kts | 26° |
| 2026-05-08 16:12 | 49.84962 | 56.42944 | 13533 ft | 333 kts | 26° |
| 2026-05-08 16:12 | 49.87008 | 56.44603 | 13102 ft | 331 kts | 29° |
| 2026-05-08 16:12 | 49.88957 | 56.46462 | 12679 ft | 329 kts | 33° |
| 2026-05-08 16:13 | 49.90855 | 56.48433 | 12251 ft | 327 kts | 34° |
| 2026-05-08 16:13 | 49.92732 | 56.50409 | 11837 ft | 325 kts | 34° |
| 2026-05-08 16:13 | 49.94578 | 56.52357 | 11420 ft | 323 kts | 34° |
| 2026-05-08 16:13 | 49.96437 | 56.54319 | 11001 ft | 322 kts | 34° |
| 2026-05-08 16:14 | 49.98268 | 56.56254 | 10586 ft | 320 kts | 34° |
| 2026-05-08 16:14 | 50.00087 | 56.58178 | 10217 ft | 316 kts | 34° |
| 2026-05-08 16:14 | 50.01861 | 56.60053 | 10078 ft | 303 kts | 34° |
| 2026-05-08 16:14 | 50.03580 | 56.61871 | 9946 ft | 291 kts | 34° |
| 2026-05-08 16:15 | 50.05220 | 56.63609 | 9807 ft | 281 kts | 34° |
| 2026-05-08 16:15 | 50.06829 | 56.65313 | 9438 ft | 280 kts | 34° |
| 2026-05-08 16:15 | 50.08433 | 56.67014 | 9077 ft | 278 kts | 34° |
| 2026-05-08 16:15 | 50.10020 | 56.68697 | 8730 ft | 276 kts | 34° |
| 2026-05-08 16:16 | 50.11598 | 56.70372 | 8375 ft | 274 kts | 34° |
| 2026-05-08 16:16 | 50.13164 | 56.72036 | 8038 ft | 272 kts | 34° |
| 2026-05-08 16:16 | 50.14720 | 56.73690 | 7763 ft | 267 kts | 34° |
| 2026-05-08 16:16 | 50.16243 | 56.75311 | 7465 ft | 264 kts | 34° |
| 2026-05-08 16:17 | 50.17752 | 56.76919 | 7222 ft | 258 kts | 34° |
| 2026-05-08 16:17 | 50.18717 | 56.77948 | 7056 ft | 255 kts | 34° |
| 2026-05-08 16:17 | 50.20643 | 56.80003 | 6627 ft | 248 kts | 34° |
| 2026-05-08 16:17 | 50.22090 | 56.81547 | 6244 ft | 248 kts | 34° |
| 2026-05-08 16:18 | 50.23492 | 56.83045 | 5913 ft | 244 kts | 35° |
| 2026-05-08 16:18 | 50.24777 | 56.84418 | 5639 ft | 243 kts | 34° |
| 2026-05-08 16:18 | 50.24781 | 56.84423 | 5635 ft | 243 kts | 34° |
| 2026-05-08 16:18 | 50.26028 | 56.85757 | 5361 ft | 243 kts | 34° |
| 2026-05-08 16:19 | 50.27063 | 56.86864 | 5147 ft | 242 kts | 34° |
| 2026-05-08 16:19 | 50.28447 | 56.88346 | 4867 ft | 242 kts | 34° |
| 2026-05-08 16:19 | 50.29823 | 56.89822 | 4603 ft | 241 kts | 34° |
| 2026-05-08 16:19 | 50.31197 | 56.91295 | 4351 ft | 237 kts | 35° |
| 2026-05-08 16:20 | 50.32541 | 56.92737 | 4099 ft | 233 kts | 35° |
| 2026-05-08 16:20 | 50.33858 | 56.94151 | 3787 ft | 225 kts | 35° |
| 2026-05-08 16:20 | 50.35131 | 56.95518 | 3425 ft | 219 kts | 35° |
| 2026-05-08 16:20 | 50.36314 | 56.96999 | 3081 ft | 215 kts | 54° |
| 2026-05-08 16:21 | 50.36791 | 56.99075 | 3042 ft | 204 kts | 88° |
| 2026-05-08 16:21 | 50.36474 | 57.01156 | 2976 ft | 189 kts | 113° |
| 2026-05-08 16:21 | 50.35838 | 57.02782 | 2972 ft | 164 kts | 126° |
| 2026-05-08 16:21 | 50.35135 | 57.04094 | 2949 ft | 150 kts | 130° |
| 2026-05-08 16:22 | 50.34444 | 57.05278 | 2960 ft | 147 kts | 131° |
| 2026-05-08 16:22 | 50.33738 | 57.06423 | 2928 ft | 146 kts | 132° |
| 2026-05-08 16:22 | 50.33019 | 57.07552 | 2752 ft | 145 kts | 133° |
| 2026-05-08 16:22 | 50.32301 | 57.08663 | 2557 ft | 144 kts | 133° |
| 2026-05-08 16:23 | 50.31593 | 57.09755 | 2370 ft | 144 kts | 133° |
| 2026-05-08 16:23 | 50.30874 | 57.10862 | 2177 ft | 143 kts | 133° |
| 2026-05-08 16:23 | 50.30169 | 57.11949 | 1990 ft | 143 kts | 133° |
| 2026-05-08 16:23 | 50.29466 | 57.13035 | 1802 ft | 143 kts | 133° |
| 2026-05-08 16:24 | 50.28762 | 57.14124 | 1612 ft | 142 kts | 133° |
| 2026-05-08 16:24 | 50.28059 | 57.15217 | 1428 ft | 142 kts | 133° |
| 2026-05-08 16:24 | 50.27367 | 57.16295 | 1237 ft | 141 kts | 134° |
| 2026-05-08 16:24 | 50.26666 | 57.17365 | 1057 ft | 141 kts | 134° |
| 2026-05-08 16:25 | 50.25966 | 57.18452 | 867 ft | 140 kts | 133° |
| 2026-05-08 16:25 | 50.25290 | 57.19502 | 746 ft | 132 kts | 134° |
| 2026-05-08 16:25 | 50.24754 | 57.20336 | 745 ft | 82 kts | 135° |
| 2026-05-08 16:25 | 50.24493 | 57.20743 | 745 ft | 25 kts | 134° |
| 2026-05-08 16:26 | 50.24443 | 57.20804 | 745 ft | 5 kts | 169° |
| 2026-05-08 16:26 | 50.24433 | 57.20823 | 745 ft | 4 kts | 14° |
| 2026-05-08 16:26 | 50.24469 | 57.20786 | 745 ft | 8 kts | 310° |
| 2026-05-08 16:26 | 50.24518 | 57.20707 | 745 ft | 11 kts | 315° |
| 2026-05-08 16:27 | 50.24582 | 57.20635 | 745 ft | 11 kts | 349° |
| 2026-05-08 16:27 | 50.24645 | 57.20678 | 745 ft | 7 kts | 41° |
| 2026-05-08 16:27 | 50.24683 | 57.20734 | 745 ft | 7 kts | 44° |
| 2026-05-08 16:27 | 50.24726 | 57.20795 | 745 ft | 8 kts | 31° |
| 2026-05-08 16:28 | 50.24780 | 57.20772 | 745 ft | 9 kts | 319° |
| 2026-05-08 16:28 | 50.24828 | 57.20699 | 745 ft | 8 kts | 315° |
| 2026-05-08 16:28 | 50.24881 | 57.20660 | 745 ft | 9 kts | 7° |
| 2026-05-08 16:28 | 50.24923 | 57.20726 | 745 ft | 9 kts | 46° |
| 2026-05-08 16:29 | 50.24944 | 57.20787 | 745 ft | 4 kts | 99° |
| 2026-05-08 16:29 | 50.24925 | 57.20828 | 745 ft | 5 kts | 137° |
| 2026-05-08 16:29 | 50.24912 | 57.20847 | 745 ft | 0 kts | 135° |